createdAt,value
2018-04-19T00:02:34.613Z,16.70
2018-04-19T00:17:36.356Z,14.10
2018-04-19T00:32:34.692Z,13.10
2018-04-19T00:47:36.707Z,12.93
2018-04-19T01:02:35.841Z,12.87
2018-04-19T01:17:36.602Z,11.73
2018-04-19T01:32:35.097Z,11.57
2018-04-19T01:47:35.007Z,10.50
2018-04-19T02:02:37.197Z,11.30
2018-04-19T02:17:34.955Z,11.33
2018-04-19T02:32:34.400Z,12.13
2018-04-19T02:47:35.262Z,12.87
2018-04-19T03:02:34.446Z,11.80
2018-04-19T03:17:34.242Z,12.97
2018-04-19T03:32:34.590Z,13.33
2018-04-19T03:47:34.781Z,12.87
2018-04-19T04:02:34.758Z,15.20
2018-04-19T04:17:46.544Z,13.73
2018-04-19T04:32:35.085Z,12.70
2018-04-19T04:47:35.048Z,18.93
2018-04-19T05:02:37.065Z,14.30
2018-04-19T05:17:35.533Z,14.40
2018-04-19T05:32:34.410Z,12.57
2018-04-19T05:47:36.334Z,15.23
2018-04-19T06:02:35.271Z,13.47
2018-04-19T06:17:35.260Z,15.60
2018-04-19T06:32:36.674Z,12.80
2018-04-19T06:47:34.115Z,12.63
2018-04-19T07:02:35.070Z,11.80
2018-04-19T07:17:34.592Z,11.37
2018-04-19T07:32:34.929Z,11.20
2018-04-19T07:47:34.950Z,10.50
2018-04-19T08:02:34.876Z,10.27
2018-04-19T08:17:34.873Z,8.93
2018-04-19T08:32:35.282Z,8.63
2018-04-19T08:47:35.242Z,9.90
2018-04-19T09:02:35.162Z,8.97
2018-04-19T09:17:37.159Z,8.60
2018-04-19T09:32:34.555Z,7.57
2018-04-19T09:47:36.524Z,10.60
2018-04-19T10:02:35.145Z,9.60
2018-04-19T10:17:34.479Z,7.20
2018-04-19T10:32:34.855Z,8.17
2018-04-19T10:47:36.833Z,7.20
2018-04-19T11:02:36.809Z,6.87
2018-04-19T11:17:35.823Z,7.03
2018-04-19T11:32:35.142Z,6.90
2018-04-19T11:47:35.186Z,6.67
2018-04-19T12:02:37.093Z,6.37
2018-04-19T12:17:35.046Z,6.27
2018-04-19T12:32:34.470Z,7.17
2018-04-19T12:47:34.433Z,8.10
2018-04-19T13:02:34.369Z,6.80
2018-04-19T13:17:34.130Z,8.53
2018-04-19T13:32:34.722Z,10.00
2018-04-19T13:47:37.710Z,10.37
2018-04-19T14:02:34.618Z,10.90
2018-04-19T14:17:34.670Z,13.10
2018-04-19T14:32:34.819Z,12.27
2018-04-19T14:47:34.788Z,13.20
2018-04-19T15:02:34.929Z,15.77
2018-04-19T15:17:34.696Z,17.80
2018-04-19T15:32:33.591Z,17.17
2018-04-19T15:47:35.087Z,16.20
2018-04-19T16:02:33.567Z,15.03
2018-04-19T16:17:34.978Z,13.40
2018-04-19T16:32:33.917Z,12.37
2018-04-19T16:47:34.921Z,13.50
2018-04-19T17:02:34.306Z,14.80
2018-04-19T17:17:35.309Z,17.27
2018-04-19T17:32:34.728Z,12.40
2018-04-19T17:47:34.811Z,11.43
2018-04-19T18:02:40.696Z,10.53
2018-04-19T18:32:43.108Z,8.57
2018-04-19T18:47:42.482Z,9.30
2018-04-19T19:02:35.027Z,7.30
2018-04-19T19:17:48.934Z,7.63
2018-04-19T19:32:35.141Z,7.57
2018-04-19T19:47:34.616Z,8.60
2018-04-19T20:02:34.323Z,8.53
2018-04-19T20:17:36.306Z,7.43
2018-04-19T20:32:34.665Z,6.50
2018-04-19T20:47:43.156Z,6.03
2018-04-19T21:02:33.738Z,6.70
2018-04-19T21:17:42.410Z,5.63
2018-04-19T21:32:45.171Z,4.83
2018-04-19T21:47:36.996Z,4.70
2018-04-19T22:02:35.182Z,5.10
2018-04-19T22:17:35.143Z,4.47
2018-04-19T22:32:34.538Z,4.20
2018-04-19T22:47:36.565Z,4.70
2018-04-19T23:02:34.499Z,3.97
2018-04-19T23:17:34.487Z,3.33
2018-04-19T23:32:35.327Z,3.77
2018-04-19T23:47:34.317Z,3.27
